createdAt,value
2019-01-25T00:04:24.648Z,62.45
2019-01-25T00:09:26.961Z,64.77
2019-01-25T00:14:29.380Z,71.67
2019-01-25T00:19:31.503Z,70.67
2019-01-25T00:24:33.495Z,63.85
2019-01-25T00:29:35.869Z,71.30
2019-01-25T00:34:37.932Z,72.12
2019-01-25T00:39:39.952Z,67.90
2019-01-25T00:44:42.253Z,61.02
2019-01-25T00:49:44.498Z,67.65
2019-01-25T00:54:46.889Z,74.58
2019-01-25T00:59:48.971Z,65.55
2019-01-25T01:04:51.005Z,81.10
2019-01-25T01:09:53.065Z,71.10
2019-01-25T01:14:55.067Z,66.55
2019-01-25T01:19:57.193Z,60.10
2019-01-25T01:24:59.216Z,63.65
2019-01-25T01:30:01.279Z,71.82
2019-01-25T01:35:25.740Z,73.75
2019-01-25T01:40:27.800Z,72.22
2019-01-25T01:45:29.832Z,60.78
2019-01-25T01:50:32.255Z,62.30
2019-01-25T01:55:34.332Z,61.85
2019-01-25T02:00:36.565Z,67.42
2019-01-25T02:05:39.006Z,56.23
2019-01-25T02:10:41.059Z,60.05
2019-01-25T02:15:43.032Z,60.65
2019-01-25T02:20:45.064Z,63.68
2019-01-25T02:25:47.551Z,54.55
2019-01-25T02:30:49.584Z,58.90
2019-01-25T02:35:51.559Z,50.88
2019-01-25T02:40:53.606Z,51.30
2019-01-25T02:46:15.142Z,54.73
2019-01-25T02:51:17.155Z,54.08
2019-01-25T02:56:19.223Z,58.55
2019-01-25T03:01:21.279Z,63.92
2019-01-25T03:06:23.325Z,62.38
2019-01-25T03:11:25.420Z,65.55
2019-01-25T03:16:27.486Z,61.18
2019-01-25T03:21:29.477Z,67.70
2019-01-25T03:26:31.928Z,60.92
2019-01-25T03:31:34.286Z,72.70
2019-01-25T03:36:36.311Z,64.27
2019-01-25T03:41:38.371Z,58.05
2019-01-25T03:46:40.706Z,56.45
2019-01-25T03:51:43.102Z,68.65
2019-01-25T03:56:45.159Z,70.62
2019-01-25T04:01:47.212Z,65.40
2019-01-25T04:06:49.250Z,65.87
2019-01-25T04:11:51.680Z,66.33
2019-01-25T04:16:53.708Z,58.95
2019-01-25T04:21:56.094Z,64.10
2019-01-25T04:26:58.112Z,67.55
2019-01-25T04:32:00.146Z,70.08
2019-01-25T04:37:02.176Z,64.07
2019-01-25T04:42:04.589Z,72.47
2019-01-25T04:47:06.967Z,68.40
2019-01-25T04:52:28.452Z,78.40
2019-01-25T04:57:30.502Z,69.90
2019-01-25T05:02:32.541Z,62.75
2019-01-25T05:07:34.697Z,72.65
2019-01-25T05:12:36.800Z,76.12
2019-01-25T05:17:38.823Z,70.97
2019-01-25T05:22:41.219Z,83.82
2019-01-25T05:27:43.292Z,77.75
2019-01-25T05:32:45.550Z,80.40
2019-01-25T05:37:47.658Z,84.32
2019-01-25T05:42:49.688Z,81.70
2019-01-25T05:47:51.723Z,80.55
2019-01-25T05:52:53.737Z,83.12
2019-01-25T05:58:15.206Z,77.15
2019-01-25T06:03:17.319Z,79.27
2019-01-25T06:08:43.882Z,82.53
2019-01-25T06:13:44.002Z,86.92
2019-01-25T06:18:46.040Z,83.50
2019-01-25T06:24:28.876Z,78.40
2019-01-25T06:29:33.173Z,83.30
2019-01-25T06:34:35.503Z,81.92
2019-01-25T06:39:37.563Z,87.85
2019-01-25T06:44:39.663Z,81.78
2019-01-25T06:49:41.913Z,72.72
2019-01-25T06:54:44.168Z,73.83
2019-01-25T06:59:46.249Z,86.50
2019-01-25T07:04:48.634Z,93.03
2019-01-25T07:09:50.845Z,93.05
2019-01-25T07:14:52.927Z,94.90
2019-01-25T07:19:54.961Z,83.45
2019-01-25T07:24:57.473Z,91.97
2019-01-25T07:30:01.088Z,89.07
2019-01-25T07:35:44.150Z,82.82
2019-01-25T07:40:46.456Z,86.28
2019-01-25T07:45:48.617Z,90.00
2019-01-25T07:50:50.687Z,97.20
2019-01-25T07:55:52.709Z,94.42
2019-01-25T08:00:54.789Z,92.47
2019-01-25T08:05:56.799Z,85.50
2019-01-25T08:10:58.830Z,86.45
2019-01-25T08:16:01.150Z,119.15
2019-01-25T08:21:03.292Z,96.35
2019-01-25T08:26:05.723Z,102.53
2019-01-25T08:31:07.698Z,104.95
2019-01-25T08:36:09.926Z,98.20
2019-01-25T08:41:12.022Z,98.05
2019-01-25T08:46:14.111Z,101.07
2019-01-25T08:51:16.581Z,110.00
2019-01-25T08:56:18.771Z,106.80
2019-01-25T09:01:20.707Z,100.22
2019-01-25T09:06:22.784Z,97.40
2019-01-25T09:11:24.893Z,121.20
2019-01-25T09:16:26.977Z,114.15
2019-01-25T09:21:29.038Z,101.67
2019-01-25T09:26:31.120Z,114.88
2019-01-25T09:31:33.328Z,103.25
2019-01-25T09:36:35.328Z,100.97
2019-01-25T09:41:37.512Z,117.20
2019-01-25T09:46:40.158Z,98.50
2019-01-25T09:51:42.186Z,115.67
2019-01-25T09:56:44.231Z,135.15
2019-01-25T10:01:46.487Z,107.85
2019-01-25T10:06:48.586Z,134.72
2019-01-25T10:11:50.562Z,119.85
2019-01-25T10:16:52.666Z,128.18
2019-01-25T10:21:55.507Z,121.53
2019-01-25T10:26:57.573Z,120.47
2019-01-25T10:31:59.730Z,129.68
2019-01-25T10:37:02.021Z,128.38
2019-01-25T10:42:04.076Z,126.35
2019-01-25T10:47:06.138Z,137.00
2019-01-25T10:52:09.146Z,115.95
2019-01-25T10:57:11.185Z,121.20
2019-01-25T11:02:32.825Z,131.63
2019-01-25T11:07:34.908Z,126.07
2019-01-25T11:12:37.418Z,134.50
2019-01-25T11:17:39.499Z,132.47
2019-01-25T11:22:41.514Z,131.63
2019-01-25T11:27:44.620Z,127.78
2019-01-25T11:32:47.146Z,125.20
2019-01-25T11:37:49.162Z,139.45
2019-01-25T11:42:51.632Z,122.60
2019-01-25T11:47:54.106Z,139.97
2019-01-25T11:52:56.255Z,127.90
2019-01-25T11:57:58.725Z,126.35
2019-01-25T12:03:00.737Z,139.85
2019-01-25T12:08:24.067Z,136.28
2019-01-25T12:13:26.138Z,141.92
2019-01-25T12:18:28.560Z,125.67
2019-01-25T12:23:30.601Z,138.05
2019-01-25T12:28:32.718Z,129.38
2019-01-25T12:33:35.206Z,145.32
2019-01-25T12:38:37.232Z,132.10
2019-01-25T12:43:39.316Z,135.28
2019-01-25T12:48:41.344Z,137.82
2019-01-25T12:53:55.760Z,130.03
2019-01-25T12:58:57.893Z,121.60
2019-01-25T13:03:59.994Z,142.80
2019-01-25T13:09:04.392Z,131.85
2019-01-25T13:14:06.473Z,129.63
2019-01-25T13:19:08.554Z,130.55
2019-01-25T13:24:10.755Z,130.95
2019-01-25T13:29:12.860Z,135.22
2019-01-25T13:34:14.934Z,140.82
2019-01-25T13:39:17.040Z,138.30
2019-01-25T13:44:19.071Z,130.97
2019-01-25T13:49:21.171Z,120.90
2019-01-25T13:54:23.279Z,121.10
2019-01-25T13:59:25.432Z,133.80
2019-01-25T14:04:27.545Z,144.17
2019-01-25T14:09:29.603Z,124.58
2019-01-25T14:19:47.999Z,125.38
2019-01-25T14:24:51.001Z,120.25
2019-01-25T14:29:53.021Z,140.40
2019-01-25T14:34:55.136Z,134.55
2019-01-25T14:39:57.414Z,118.70
2019-01-25T14:44:59.523Z,130.32
2019-01-25T14:50:01.552Z,136.50
2019-01-25T14:55:04.410Z,124.58
2019-01-25T15:00:07.740Z,133.60
2019-01-25T15:05:14.854Z,113.47
2019-01-25T15:10:19.393Z,117.20
2019-01-25T15:15:21.477Z,109.25
2019-01-25T15:20:26.068Z,113.35
2019-01-25T15:25:28.117Z,119.62
2019-01-25T15:30:43.907Z,116.05
2019-01-25T15:35:46.231Z,114.92
2019-01-25T15:40:48.392Z,111.20
2019-01-25T15:45:50.479Z,93.22
2019-01-25T15:50:52.520Z,93.75
2019-01-25T15:55:54.623Z,88.75
2019-01-25T16:00:56.681Z,94.90
2019-01-25T16:05:58.697Z,98.85
2019-01-25T16:11:00.819Z,76.92
2019-01-25T16:16:03.060Z,84.97
2019-01-25T16:21:05.084Z,78.80
2019-01-25T16:26:07.221Z,68.25
2019-01-25T16:31:09.419Z,72.55
2019-01-25T16:36:11.516Z,75.62
2019-01-25T16:41:13.562Z,65.50
2019-01-25T16:46:15.664Z,69.20
2019-01-25T16:51:17.836Z,62.23
2019-01-25T16:56:19.870Z,58.55
2019-01-25T17:01:21.877Z,47.05
2019-01-25T17:06:23.899Z,42.43
2019-01-25T17:11:26.032Z,43.87
2019-01-25T17:16:28.378Z,38.38
2019-01-25T17:21:30.492Z,46.63
2019-01-25T17:26:32.597Z,46.08
2019-01-25T17:31:34.665Z,47.00
2019-01-25T17:36:36.773Z,56.37
2019-01-25T17:41:39.623Z,50.25
2019-01-25T17:46:41.681Z,60.25
2019-01-25T17:51:43.756Z,58.35
2019-01-25T17:56:45.839Z,60.73
2019-01-25T18:01:47.898Z,55.88
2019-01-25T18:06:49.893Z,61.28
2019-01-25T18:11:51.928Z,60.40
2019-01-25T18:16:53.984Z,57.73
2019-01-25T18:21:55.958Z,58.25
2019-01-25T18:26:58.003Z,60.40
2019-01-25T18:32:00.367Z,62.35
2019-01-25T18:37:02.486Z,67.45
2019-01-25T18:42:04.492Z,61.63
2019-01-25T18:47:06.477Z,64.03
2019-01-25T18:52:08.528Z,62.98
2019-01-25T18:57:10.540Z,63.83
2019-01-25T19:02:12.605Z,71.62
2019-01-25T19:07:14.618Z,64.30
2019-01-25T19:12:16.663Z,66.92
2019-01-25T19:17:18.714Z,71.07
2019-01-25T19:22:20.757Z,67.00
2019-01-25T19:27:22.798Z,67.20
2019-01-25T19:32:24.813Z,67.80
2019-01-25T19:37:26.887Z,72.00
2019-01-25T19:42:28.950Z,76.15
2019-01-25T19:47:31.029Z,84.87
2019-01-25T19:52:33.150Z,73.67
2019-01-25T19:57:35.241Z,78.78
2019-01-25T20:02:37.275Z,77.15
2019-01-25T20:07:39.290Z,80.92
2019-01-25T20:12:41.876Z,86.92
2019-01-25T20:17:43.995Z,81.85
2019-01-25T20:22:46.041Z,101.90
2019-01-25T20:28:09.354Z,91.40
2019-01-25T20:33:11.471Z,92.65
2019-01-25T20:38:13.587Z,105.50
2019-01-25T20:43:15.985Z,112.37
2019-01-25T20:48:18.021Z,106.58
2019-01-25T20:53:20.128Z,114.55
2019-01-25T20:58:22.661Z,112.12
2019-01-25T21:03:24.651Z,99.17
2019-01-25T21:08:26.735Z,105.92
2019-01-25T21:13:28.922Z,93.25
2019-01-25T21:18:30.980Z,111.83
2019-01-25T21:23:33.037Z,124.20
2019-01-25T21:28:35.036Z,121.62
2019-01-25T21:33:37.074Z,108.65
2019-01-25T21:38:39.146Z,107.27
2019-01-25T21:43:41.226Z,105.90
2019-01-25T21:48:43.239Z,115.80
2019-01-25T21:53:45.330Z,119.25
2019-01-25T21:58:47.668Z,119.57
2019-01-25T22:03:49.648Z,158.20
2019-01-25T22:08:51.708Z,115.67
2019-01-25T22:13:53.771Z,106.20
2019-01-25T22:18:55.855Z,100.00
2019-01-25T22:23:57.887Z,104.17
2019-01-25T22:28:59.879Z,114.70
2019-01-25T22:34:01.911Z,102.12
2019-01-25T22:39:46.432Z,101.92
2019-01-25T22:45:08.095Z,104.07
2019-01-25T22:50:14.228Z,104.58
2019-01-25T22:55:17.594Z,103.10
2019-01-25T23:01:01.919Z,103.35
2019-01-25T23:06:42.869Z,109.07
2019-01-25T23:11:44.969Z,118.08
2019-01-25T23:16:47.180Z,95.92
2019-01-25T23:21:50.363Z,91.57
2019-01-25T23:26:53.442Z,91.25
2019-01-25T23:31:55.439Z,94.22
2019-01-25T23:36:57.496Z,98.67
2019-01-25T23:41:59.766Z,98.40
2019-01-25T23:47:01.790Z,97.55
2019-01-25T23:52:04.021Z,90.17
2019-01-25T23:57:06.128Z,97.15
